sensor_id;sensor_type;location;lat;lon;timestamp;pressure;altitude;pressure_sealevel;temperature;humidity
68107;BME280;54892;47.488;19.026;2023-02-23T00:01:28;100045.75;;;8.75;63.76
68107;BME280;54892;47.488;19.026;2023-02-23T00:04:32;100039.06;;;8.67;63.82
68107;BME280;54892;47.488;19.026;2023-02-23T00:07:36;100041.22;;;8.71;63.41
68107;BME280;54892;47.488;19.026;2023-02-23T00:10:40;100042.28;;;8.75;63.33
68107;BME280;54892;47.488;19.026;2023-02-23T00:13:45;100045.66;;;8.70;63.53
68107;BME280;54892;47.488;19.026;2023-02-23T00:16:50;100047.56;;;8.75;63.59
68107;BME280;54892;47.488;19.026;2023-02-23T00:19:54;100046.47;;;8.71;63.49
68107;BME280;54892;47.488;19.026;2023-02-23T00:22:59;100045.81;;;8.63;63.69
68107;BME280;54892;47.488;19.026;2023-02-23T00:26:02;100039.53;;;8.64;63.64
68107;BME280;54892;47.488;19.026;2023-02-23T00:29:06;100040.31;;;8.65;63.64
68107;BME280;54892;47.488;19.026;2023-02-23T00:32:10;100045.25;;;8.61;63.61
68107;BME280;54892;47.488;19.026;2023-02-23T00:35:13;100048.62;;;8.57;63.54
68107;BME280;54892;47.488;19.026;2023-02-23T00:38:21;100045.75;;;8.58;63.67
68107;BME280;54892;47.488;19.026;2023-02-23T00:41:24;100057.31;;;8.57;63.30
68107;BME280;54892;47.488;19.026;2023-02-23T00:44:29;100054.75;;;8.62;63.21
68107;BME280;54892;47.488;19.026;2023-02-23T00:47:34;100054.75;;;8.62;63.06
68107;BME280;54892;47.488;19.026;2023-02-23T00:50:37;100050.47;;;8.56;63.70
68107;BME280;54892;47.488;19.026;2023-02-23T00:53:43;100054.44;;;8.59;63.54
68107;BME280;54892;47.488;19.026;2023-02-23T00:56:49;100056.78;;;8.55;63.82
68107;BME280;54892;47.488;19.026;2023-02-23T00:59:53;100056.34;;;8.46;63.58
68107;BME280;54892;47.488;19.026;2023-02-23T01:02:56;100054.66;;;8.40;62.88
68107;BME280;54892;47.488;19.026;2023-02-23T01:06:00;100059.66;;;8.42;62.81
68107;BME280;54892;47.488;19.026;2023-02-23T01:09:09;100053.94;;;8.45;62.51
68107;BME280;54892;47.488;19.026;2023-02-23T01:12:14;100062.97;;;8.49;62.48
68107;BME280;54892;47.488;19.026;2023-02-23T01:15:18;100060.72;;;8.41;61.97
68107;BME280;54892;47.488;19.026;2023-02-23T01:18:21;100051.25;;;8.40;61.83
68107;BME280;54892;47.488;19.026;2023-02-23T01:21:26;100054.03;;;8.33;61.99
68107;BME280;54892;47.488;19.026;2023-02-23T01:24:30;100059.25;;;8.16;62.44
68107;BME280;54892;47.488;19.026;2023-02-23T01:27:34;100065.31;;;8.33;62.57
68107;BME280;54892;47.488;19.026;2023-02-23T01:30:37;100054.25;;;8.31;62.75
68107;BME280;54892;47.488;19.026;2023-02-23T01:33:40;100063.81;;;8.37;62.68
68107;BME280;54892;47.488;19.026;2023-02-23T01:36:44;100052.34;;;8.27;62.55
68107;BME280;54892;47.488;19.026;2023-02-23T01:39:48;100057.91;;;8.30;62.40
68107;BME280;54892;47.488;19.026;2023-02-23T01:42:52;100061.16;;;8.20;62.15
68107;BME280;54892;47.488;19.026;2023-02-23T01:45:55;100054.25;;;8.31;62.13
68107;BME280;54892;47.488;19.026;2023-02-23T01:48:58;100051.06;;;8.29;61.89
68107;BME280;54892;47.488;19.026;2023-02-23T01:52:03;100062.12;;;8.31;61.76
68107;BME280;54892;47.488;19.026;2023-02-23T01:55:09;100049.41;;;8.23;61.40
68107;BME280;54892;47.488;19.026;2023-02-23T01:58:15;100046.91;;;8.33;61.49
68107;BME280;54892;47.488;19.026;2023-02-23T02:01:20;100050.81;;;8.14;61.63
68107;BME280;54892;47.488;19.026;2023-02-23T02:04:24;100045.53;;;8.14;61.77
68107;BME280;54892;47.488;19.026;2023-02-23T02:07:27;100042.91;;;8.14;61.52
68107;BME280;54892;47.488;19.026;2023-02-23T02:10:33;100046.56;;;8.13;61.42
68107;BME280;54892;47.488;19.026;2023-02-23T02:13:47;100046.09;;;8.16;61.69
68107;BME280;54892;47.488;19.026;2023-02-23T02:27:07;100043.72;;;8.14;61.66
68107;BME280;54892;47.488;19.026;2023-02-23T02:33:39;100039.91;;;8.22;61.54
68107;BME280;54892;47.488;19.026;2023-02-23T02:40:12;100035.38;;;8.17;60.99
68107;BME280;54892;47.488;19.026;2023-02-23T02:43:21;100040.47;;;8.24;61.47
68107;BME280;54892;47.488;19.026;2023-02-23T02:46:25;100044.69;;;8.25;61.21
68107;BME280;54892;47.488;19.026;2023-02-23T02:49:30;100039.81;;;8.17;61.29
68107;BME280;54892;47.488;19.026;2023-02-23T02:52:36;100044.91;;;8.23;61.32
68107;BME280;54892;47.488;19.026;2023-02-23T02:55:42;100042.44;;;8.17;61.14
68107;BME280;54892;47.488;19.026;2023-02-23T02:58:45;100046.50;;;8.07;61.09
68107;BME280;54892;47.488;19.026;2023-02-23T03:01:51;100052.53;;;8.08;61.53
68107;BME280;54892;47.488;19.026;2023-02-23T03:05:12;100052.72;;;8.18;61.28
68107;BME280;54892;47.488;19.026;2023-02-23T03:08:36;100045.31;;;8.15;61.39
68107;BME280;54892;47.488;19.026;2023-02-23T03:12:04;100056.41;;;8.17;61.38
68107;BME280;54892;47.488;19.026;2023-02-23T03:15:28;100059.72;;;8.13;61.31
68107;BME280;54892;47.488;19.026;2023-02-23T03:18:58;100054.72;;;8.11;61.33
68107;BME280;54892;47.488;19.026;2023-02-23T03:22:21;100060.13;;;8.04;61.53
68107;BME280;54892;47.488;19.026;2023-02-23T03:25:48;100055.19;;;8.08;61.46
68107;BME280;54892;47.488;19.026;2023-02-23T03:29:12;100057.50;;;8.21;61.33
68107;BME280;54892;47.488;19.026;2023-02-23T03:32:35;100067.59;;;8.13;61.56
68107;BME280;54892;47.488;19.026;2023-02-23T03:35:59;100060.91;;;8.05;61.51
68107;BME280;54892;47.488;19.026;2023-02-23T03:39:22;100066.59;;;7.85;61.32
68107;BME280;54892;47.488;19.026;2023-02-23T03:42:45;100068.44;;;7.84;61.69
68107;BME280;54892;47.488;19.026;2023-02-23T03:46:09;100063.31;;;7.77;61.55
68107;BME280;54892;47.488;19.026;2023-02-23T03:49:32;100065.66;;;7.91;61.00
68107;BME280;54892;47.488;19.026;2023-02-23T03:52:55;100065.00;;;7.84;61.31
68107;BME280;54892;47.488;19.026;2023-02-23T03:56:17;100068.88;;;7.93;61.08
68107;BME280;54892;47.488;19.026;2023-02-23T03:59:41;100068.03;;;7.92;61.36
68107;BME280;54892;47.488;19.026;2023-02-23T04:03:05;100064.22;;;7.83;62.44
68107;BME280;54892;47.488;19.026;2023-02-23T04:06:27;100072.41;;;7.87;62.28
68107;BME280;54892;47.488;19.026;2023-02-23T04:09:50;100062.09;;;7.97;61.53
68107;BME280;54892;47.488;19.026;2023-02-23T04:13:12;100063.34;;;7.95;61.21
68107;BME280;54892;47.488;19.026;2023-02-23T04:16:15;100071.25;;;7.95;61.35
68107;BME280;54892;47.488;19.026;2023-02-23T04:19:19;100068.97;;;7.86;61.68
68107;BME280;54892;47.488;19.026;2023-02-23T04:22:23;100070.25;;;7.84;61.79
68107;BME280;54892;47.488;19.026;2023-02-23T04:25:28;100069.81;;;7.75;62.05
68107;BME280;54892;47.488;19.026;2023-02-23T04:28:32;100065.28;;;7.70;62.12
68107;BME280;54892;47.488;19.026;2023-02-23T04:31:35;100062.97;;;7.74;62.14
68107;BME280;54892;47.488;19.026;2023-02-23T04:34:40;100060.44;;;7.79;62.12
68107;BME280;54892;47.488;19.026;2023-02-23T04:37:43;100069.03;;;7.74;62.05
68107;BME280;54892;47.488;19.026;2023-02-23T04:40:46;100063.41;;;7.83;61.67
68107;BME280;54892;47.488;19.026;2023-02-23T04:43:50;100069.12;;;7.80;61.54
68107;BME280;54892;47.488;19.026;2023-02-23T04:46:53;100081.37;;;7.74;61.88
68107;BME280;54892;47.488;19.026;2023-02-23T04:49:59;100076.38;;;7.60;62.24
68107;BME280;54892;47.488;19.026;2023-02-23T04:53:03;100075.22;;;7.68;61.85
68107;BME280;54892;47.488;19.026;2023-02-23T04:56:06;100074.16;;;7.40;62.64
68107;BME280;54892;47.488;19.026;2023-02-23T04:59:10;100070.50;;;7.53;62.38
68107;BME280;54892;47.488;19.026;2023-02-23T05:02:13;100068.75;;;7.59;62.68
68107;BME280;54892;47.488;19.026;2023-02-23T05:05:18;100063.56;;;7.64;62.31
68107;BME280;54892;47.488;19.026;2023-02-23T05:08:22;100066.69;;;7.61;62.67
68107;BME280;54892;47.488;19.026;2023-02-23T05:11:25;100075.13;;;7.63;62.68
68107;BME280;54892;47.488;19.026;2023-02-23T05:14:29;100068.44;;;7.43;63.09
68107;BME280;54892;47.488;19.026;2023-02-23T05:17:32;100070.13;;;7.50;62.68
68107;BME280;54892;47.488;19.026;2023-02-23T05:20:36;100071.41;;;7.47;62.32
68107;BME280;54892;47.488;19.026;2023-02-23T05:23:39;100078.56;;;7.52;62.46
68107;BME280;54892;47.488;19.026;2023-02-23T05:26:43;100079.00;;;7.60;62.19
68107;BME280;54892;47.488;19.026;2023-02-23T05:29:46;100083.53;;;7.77;61.46
68107;BME280;54892;47.488;19.026;2023-02-23T05:32:50;100085.44;;;7.53;62.54
68107;BME280;54892;47.488;19.026;2023-02-23T05:35:57;100080.75;;;7.43;62.70
68107;BME280;54892;47.488;19.026;2023-02-23T05:39:00;100084.84;;;7.51;62.64
68107;BME280;54892;47.488;19.026;2023-02-23T05:42:03;100085.69;;;7.39;62.53
68107;BME280;54892;47.488;19.026;2023-02-23T05:45:07;100084.84;;;7.62;62.00
68107;BME280;54892;47.488;19.026;2023-02-23T05:48:10;100082.59;;;7.54;62.45
68107;BME280;54892;47.488;19.026;2023-02-23T05:51:15;100088.66;;;7.43;62.88
68107;BME280;54892;47.488;19.026;2023-02-23T05:54:19;100082.22;;;7.51;62.53
68107;BME280;54892;47.488;19.026;2023-02-23T05:57:23;100088.34;;;7.68;62.43
68107;BME280;54892;47.488;19.026;2023-02-23T06:00:26;100091.13;;;7.61;61.82
68107;BME280;54892;47.488;19.026;2023-02-23T06:03:29;100092.03;;;7.55;62.38
68107;BME280;54892;47.488;19.026;2023-02-23T06:06:34;100099.81;;;7.62;62.07
68107;BME280;54892;47.488;19.026;2023-02-23T06:09:37;100107.34;;;7.58;61.86
68107;BME280;54892;47.488;19.026;2023-02-23T06:12:43;100101.75;;;7.67;61.73
68107;BME280;54892;47.488;19.026;2023-02-23T06:15:46;100102.75;;;7.77;61.77
68107;BME280;54892;47.488;19.026;2023-02-23T06:18:51;100114.34;;;7.41;62.39
68107;BME280;54892;47.488;19.026;2023-02-23T06:21:56;100115.59;;;7.50;61.77
68107;BME280;54892;47.488;19.026;2023-02-23T06:24:59;100114.69;;;7.44;61.71
68107;BME280;54892;47.488;19.026;2023-02-23T06:28:06;100122.66;;;7.50;61.74
68107;BME280;54892;47.488;19.026;2023-02-23T06:31:10;100128.59;;;7.57;61.64
68107;BME280;54892;47.488;19.026;2023-02-23T06:34:13;100132.37;;;7.49;61.80
68107;BME280;54892;47.488;19.026;2023-02-23T06:37:18;100130.44;;;7.44;61.39
68107;BME280;54892;47.488;19.026;2023-02-23T06:40:22;100133.28;;;7.43;61.49
68107;BME280;54892;47.488;19.026;2023-02-23T06:43:25;100138.84;;;7.58;60.64
68107;BME280;54892;47.488;19.026;2023-02-23T06:46:29;100141.41;;;7.41;60.63
68107;BME280;54892;47.488;19.026;2023-02-23T06:49:34;100151.34;;;7.39;60.99
68107;BME280;54892;47.488;19.026;2023-02-23T06:52:39;100145.28;;;7.51;61.11
68107;BME280;54892;47.488;19.026;2023-02-23T06:55:42;100152.56;;;7.72;59.60
68107;BME280;54892;47.488;19.026;2023-02-23T06:58:45;100147.19;;;7.55;60.36
68107;BME280;54892;47.488;19.026;2023-02-23T07:01:49;100149.34;;;7.70;59.53
68107;BME280;54892;47.488;19.026;2023-02-23T07:04:51;100149.81;;;7.67;60.19
68107;BME280;54892;47.488;19.026;2023-02-23T07:07:56;100149.53;;;7.81;59.04
68107;BME280;54892;47.488;19.026;2023-02-23T07:11:03;100153.13;;;7.62;58.46
68107;BME280;54892;47.488;19.026;2023-02-23T07:14:07;100155.19;;;7.49;59.29
68107;BME280;54892;47.488;19.026;2023-02-23T07:17:16;100163.97;;;7.66;59.10
68107;BME280;54892;47.488;19.026;2023-02-23T07:20:19;100158.47;;;7.80;58.01
68107;BME280;54892;47.488;19.026;2023-02-23T07:23:24;100159.50;;;7.78;57.91
68107;BME280;54892;47.488;19.026;2023-02-23T07:26:28;100160.31;;;7.79;58.55
68107;BME280;54892;47.488;19.026;2023-02-23T07:29:31;100154.03;;;7.68;58.64
68107;BME280;54892;47.488;19.026;2023-02-23T07:32:36;100160.53;;;7.77;58.16
68107;BME280;54892;47.488;19.026;2023-02-23T07:35:40;100165.87;;;7.83;58.11
68107;BME280;54892;47.488;19.026;2023-02-23T07:38:44;100167.72;;;7.82;58.40
68107;BME280;54892;47.488;19.026;2023-02-23T07:41:48;100165.81;;;7.77;57.84
68107;BME280;54892;47.488;19.026;2023-02-23T07:44:51;100164.19;;;7.76;58.21
68107;BME280;54892;47.488;19.026;2023-02-23T07:47:55;100170.25;;;7.65;57.68
68107;BME280;54892;47.488;19.026;2023-02-23T07:50:58;100166.81;;;7.76;57.37
68107;BME280;54892;47.488;19.026;2023-02-23T07:54:03;100161.78;;;7.87;57.70
68107;BME280;54892;47.488;19.026;2023-02-23T07:57:07;100169.84;;;7.97;56.45
68107;BME280;54892;47.488;19.026;2023-02-23T08:00:11;100168.38;;;7.89;57.26
68107;BME280;54892;47.488;19.026;2023-02-23T08:03:14;100160.19;;;7.74;57.88
68107;BME280;54892;47.488;19.026;2023-02-23T08:06:18;100163.81;;;7.97;57.47
68107;BME280;54892;47.488;19.026;2023-02-23T08:09:22;100164.00;;;7.95;56.81
68107;BME280;54892;47.488;19.026;2023-02-23T08:12:25;100163.34;;;8.00;57.37
68107;BME280;54892;47.488;19.026;2023-02-23T08:15:29;100166.09;;;7.93;57.07
68107;BME280;54892;47.488;19.026;2023-02-23T08:18:32;100167.66;;;8.06;56.30
68107;BME280;54892;47.488;19.026;2023-02-23T08:21:36;100162.25;;;7.72;57.59
68107;BME280;54892;47.488;19.026;2023-02-23T08:24:40;100173.84;;;8.00;56.57
68107;BME280;54892;47.488;19.026;2023-02-23T08:27:44;100178.50;;;8.10;55.91
68107;BME280;54892;47.488;19.026;2023-02-23T08:30:48;100174.44;;;8.02;56.20
68107;BME280;54892;47.488;19.026;2023-02-23T08:33:51;100178.44;;;8.21;56.32
68107;BME280;54892;47.488;19.026;2023-02-23T08:36:54;100177.13;;;8.36;55.92
68107;BME280;54892;47.488;19.026;2023-02-23T08:39:58;100173.00;;;8.11;55.76
68107;BME280;54892;47.488;19.026;2023-02-23T08:43:02;100177.28;;;8.29;55.43
68107;BME280;54892;47.488;19.026;2023-02-23T08:46:05;100174.75;;;8.34;54.70
68107;BME280;54892;47.488;19.026;2023-02-23T08:49:09;100187.19;;;8.39;55.27
68107;BME280;54892;47.488;19.026;2023-02-23T08:52:12;100177.81;;;8.43;55.35
68107;BME280;54892;47.488;19.026;2023-02-23T08:55:17;100181.09;;;8.50;54.38
68107;BME280;54892;47.488;19.026;2023-02-23T08:58:22;100190.63;;;8.40;55.01
68107;BME280;54892;47.488;19.026;2023-02-23T09:01:25;100190.38;;;8.41;55.35
68107;BME280;54892;47.488;19.026;2023-02-23T09:04:29;100192.78;;;8.72;54.42
68107;BME280;54892;47.488;19.026;2023-02-23T09:07:34;100192.87;;;8.77;54.39
68107;BME280;54892;47.488;19.026;2023-02-23T09:10:42;100186.50;;;8.90;53.72
68107;BME280;54892;47.488;19.026;2023-02-23T09:13:46;100191.09;;;8.65;54.26
68107;BME280;54892;47.488;19.026;2023-02-23T09:16:49;100187.75;;;8.70;54.00
68107;BME280;54892;47.488;19.026;2023-02-23T09:19:52;100189.50;;;8.81;54.44
68107;BME280;54892;47.488;19.026;2023-02-23T09:22:56;100191.94;;;8.83;53.26
68107;BME280;54892;47.488;19.026;2023-02-23T09:26:02;100190.22;;;8.77;53.65
68107;BME280;54892;47.488;19.026;2023-02-23T09:29:06;100189.03;;;8.84;53.78
68107;BME280;54892;47.488;19.026;2023-02-23T09:32:09;100200.84;;;8.99;53.23
68107;BME280;54892;47.488;19.026;2023-02-23T09:35:13;100185.72;;;9.06;53.69
68107;BME280;54892;47.488;19.026;2023-02-23T09:38:19;100197.91;;;9.12;52.74
68107;BME280;54892;47.488;19.026;2023-02-23T09:41:34;100190.00;;;9.12;53.13
68107;BME280;54892;47.488;19.026;2023-02-23T09:44:48;100205.16;;;9.22;52.62
68107;BME280;54892;47.488;19.026;2023-02-23T09:47:59;100200.53;;;9.29;52.11
68107;BME280;54892;47.488;19.026;2023-02-23T09:51:05;100204.28;;;9.34;51.90
68107;BME280;54892;47.488;19.026;2023-02-23T09:54:10;100195.00;;;9.31;51.30
68107;BME280;54892;47.488;19.026;2023-02-23T09:57:17;100198.69;;;9.47;51.63
68107;BME280;54892;47.488;19.026;2023-02-23T10:00:22;100199.81;;;9.34;51.22
68107;BME280;54892;47.488;19.026;2023-02-23T10:03:28;100193.31;;;9.42;51.53
68107;BME280;54892;47.488;19.026;2023-02-23T10:06:33;100196.53;;;9.44;51.43
68107;BME280;54892;47.488;19.026;2023-02-23T10:13:07;100197.81;;;9.24;51.62
68107;BME280;54892;47.488;19.026;2023-02-23T10:16:17;100197.94;;;9.35;52.04
68107;BME280;54892;47.488;19.026;2023-02-23T10:19:24;100201.69;;;9.56;52.37
68107;BME280;54892;47.488;19.026;2023-02-23T10:22:31;100198.16;;;9.89;51.01
68107;BME280;54892;47.488;19.026;2023-02-23T10:25:35;100203.59;;;9.60;51.21
68107;BME280;54892;47.488;19.026;2023-02-23T10:28:40;100200.31;;;9.53;51.45
68107;BME280;54892;47.488;19.026;2023-02-23T10:31:47;100193.19;;;9.32;51.67
68107;BME280;54892;47.488;19.026;2023-02-23T10:34:51;100196.06;;;9.30;51.90
68107;BME280;54892;47.488;19.026;2023-02-23T10:37:55;100187.53;;;9.23;52.59
68107;BME280;54892;47.488;19.026;2023-02-23T10:40:58;100183.44;;;9.49;52.56
68107;BME280;54892;47.488;19.026;2023-02-23T10:44:04;100185.03;;;9.33;52.20
68107;BME280;54892;47.488;19.026;2023-02-23T10:47:18;100182.78;;;9.42;52.12
68107;BME280;54892;47.488;19.026;2023-02-23T10:50:22;100176.91;;;9.18;52.29
68107;BME280;54892;47.488;19.026;2023-02-23T10:53:29;100173.22;;;9.36;52.48
68107;BME280;54892;47.488;19.026;2023-02-23T10:56:41;100168.66;;;9.48;52.44
68107;BME280;54892;47.488;19.026;2023-02-23T10:59:58;100169.22;;;9.72;51.57
68107;BME280;54892;47.488;19.026;2023-02-23T11:03:02;100164.44;;;9.47;51.79
68107;BME280;54892;47.488;19.026;2023-02-23T11:06:26;100154.66;;;9.48;52.75
68107;BME280;54892;47.488;19.026;2023-02-23T11:09:29;100152.00;;;9.65;52.33
68107;BME280;54892;47.488;19.026;2023-02-23T11:12:46;100149.03;;;9.61;52.58
68107;BME280;54892;47.488;19.026;2023-02-23T11:15:53;100152.59;;;9.72;52.12
68107;BME280;54892;47.488;19.026;2023-02-23T11:19:01;100150.78;;;9.72;51.96
68107;BME280;54892;47.488;19.026;2023-02-23T11:22:05;100142.66;;;10.01;51.36
68107;BME280;54892;47.488;19.026;2023-02-23T11:25:14;100142.88;;;9.95;51.28
68107;BME280;54892;47.488;19.026;2023-02-23T11:28:18;100146.84;;;9.97;51.54
68107;BME280;54892;47.488;19.026;2023-02-23T11:31:28;100141.25;;;9.94;51.08
68107;BME280;54892;47.488;19.026;2023-02-23T11:34:33;100139.78;;;10.03;51.79
68107;BME280;54892;47.488;19.026;2023-02-23T11:37:41;100136.75;;;10.16;51.15
68107;BME280;54892;47.488;19.026;2023-02-23T11:40:45;100135.22;;;10.20;50.11
68107;BME280;54892;47.488;19.026;2023-02-23T11:43:59;100132.22;;;10.12;49.46
68107;BME280;54892;47.488;19.026;2023-02-23T11:47:12;100134.88;;;9.89;50.51
68107;BME280;54892;47.488;19.026;2023-02-23T11:50:19;100123.56;;;10.16;50.24
68107;BME280;54892;47.488;19.026;2023-02-23T11:53:25;100120.38;;;10.14;50.41
68107;BME280;54892;47.488;19.026;2023-02-23T11:56:31;100120.22;;;10.26;50.05
68107;BME280;54892;47.488;19.026;2023-02-23T11:59:34;100120.78;;;10.28;49.96
68107;BME280;54892;47.488;19.026;2023-02-23T12:02:46;100122.34;;;10.02;50.26
68107;BME280;54892;47.488;19.026;2023-02-23T12:05:51;100113.88;;;10.00;51.00
68107;BME280;54892;47.488;19.026;2023-02-23T12:09:04;100117.91;;;10.08;51.02
68107;BME280;54892;47.488;19.026;2023-02-23T12:12:09;100121.19;;;10.15;50.59
68107;BME280;54892;47.488;19.026;2023-02-23T12:15:16;100114.66;;;10.23;50.25
68107;BME280;54892;47.488;19.026;2023-02-23T12:18:28;100114.69;;;10.28;50.53
68107;BME280;54892;47.488;19.026;2023-02-23T12:21:33;100105.37;;;10.42;50.27
68107;BME280;54892;47.488;19.026;2023-02-23T12:24:42;100099.38;;;10.25;50.02
68107;BME280;54892;47.488;19.026;2023-02-23T12:27:47;100095.16;;;10.29;50.26
68107;BME280;54892;47.488;19.026;2023-02-23T12:30:53;100098.28;;;10.20;50.50
68107;BME280;54892;47.488;19.026;2023-02-23T12:34:00;100089.56;;;9.93;50.46
68107;BME280;54892;47.488;19.026;2023-02-23T12:37:08;100090.56;;;10.14;50.59
68107;BME280;54892;47.488;19.026;2023-02-23T12:40:18;100085.44;;;10.02;50.76
68107;BME280;54892;47.488;19.026;2023-02-23T12:43:26;100074.41;;;10.05;50.65
68107;BME280;54892;47.488;19.026;2023-02-23T12:46:33;100079.59;;;10.00;51.11
68107;BME280;54892;47.488;19.026;2023-02-23T12:49:43;100076.41;;;9.98;51.75
68107;BME280;54892;47.488;19.026;2023-02-23T12:52:48;100069.25;;;10.20;51.16
68107;BME280;54892;47.488;19.026;2023-02-23T12:56:00;100068.78;;;10.29;51.21
68107;BME280;54892;47.488;19.026;2023-02-23T12:59:16;100061.56;;;10.41;50.41
68107;BME280;54892;47.488;19.026;2023-02-23T13:02:24;100056.19;;;10.36;50.90
68107;BME280;54892;47.488;19.026;2023-02-23T13:05:32;100056.28;;;10.41;51.30
68107;BME280;54892;47.488;19.026;2023-02-23T13:12:05;100054.03;;;10.60;50.38
68107;BME280;54892;47.488;19.026;2023-02-23T13:15:16;100044.81;;;10.63;50.34
68107;BME280;54892;47.488;19.026;2023-02-23T13:18:25;100049.53;;;10.61;50.75
68107;BME280;54892;47.488;19.026;2023-02-23T13:21:32;100044.13;;;10.78;50.01
68107;BME280;54892;47.488;19.026;2023-02-23T13:24:37;100042.25;;;10.73;49.78
68107;BME280;54892;47.488;19.026;2023-02-23T13:27:41;100044.84;;;10.68;50.57
68107;BME280;54892;47.488;19.026;2023-02-23T13:30:54;100029.06;;;10.78;50.37
68107;BME280;54892;47.488;19.026;2023-02-23T13:34:10;100034.66;;;10.82;50.36
68107;BME280;54892;47.488;19.026;2023-02-23T13:37:15;100037.06;;;10.94;50.37
68107;BME280;54892;47.488;19.026;2023-02-23T13:40:22;100029.44;;;11.03;50.11
68107;BME280;54892;47.488;19.026;2023-02-23T13:43:29;100031.31;;;11.07;50.02
68107;BME280;54892;47.488;19.026;2023-02-23T13:46:39;100021.84;;;11.11;50.07
68107;BME280;54892;47.488;19.026;2023-02-23T13:49:45;100026.59;;;11.15;48.95
68107;BME280;54892;47.488;19.026;2023-02-23T13:52:54;100017.00;;;10.93;50.24
68107;BME280;54892;47.488;19.026;2023-02-23T13:55:59;100018.62;;;10.99;50.32
68107;BME280;54892;47.488;19.026;2023-02-23T13:59:05;100018.12;;;11.12;50.21
68107;BME280;54892;47.488;19.026;2023-02-23T14:02:21;100010.22;;;11.12;50.25
68107;BME280;54892;47.488;19.026;2023-02-23T14:05:26;100016.34;;;11.23;49.21
68107;BME280;54892;47.488;19.026;2023-02-23T14:08:33;100015.66;;;10.90;50.35
68107;BME280;54892;47.488;19.026;2023-02-23T14:15:26;100014.34;;;10.93;50.58
68107;BME280;54892;47.488;19.026;2023-02-23T14:18:29;100015.94;;;10.94;51.25
68107;BME280;54892;47.488;19.026;2023-02-23T14:21:33;100015.38;;;10.87;51.61
68107;BME280;54892;47.488;19.026;2023-02-23T14:24:38;100010.37;;;10.90;51.02
68107;BME280;54892;47.488;19.026;2023-02-23T14:27:42;100012.25;;;10.95;51.11
68107;BME280;54892;47.488;19.026;2023-02-23T14:30:46;100016.59;;;11.17;50.97
68107;BME280;54892;47.488;19.026;2023-02-23T14:33:56;100021.31;;;11.15;50.89
68107;BME280;54892;47.488;19.026;2023-02-23T14:37:02;100018.69;;;11.15;51.07
68107;BME280;54892;47.488;19.026;2023-02-23T14:40:11;100017.59;;;11.10;50.58
68107;BME280;54892;47.488;19.026;2023-02-23T14:46:52;100019.13;;;10.96;51.83
68107;BME280;54892;47.488;19.026;2023-02-23T14:49:58;100014.41;;;11.03;51.58
68107;BME280;54892;47.488;19.026;2023-02-23T14:53:02;100004.59;;;10.93;51.57
68107;BME280;54892;47.488;19.026;2023-02-23T14:56:17;100012.00;;;11.02;51.59
68107;BME280;54892;47.488;19.026;2023-02-23T14:59:21;100013.72;;;10.75;52.05
68107;BME280;54892;47.488;19.026;2023-02-23T15:02:25;100008.53;;;10.86;51.93
68107;BME280;54892;47.488;19.026;2023-02-23T15:05:29;99999.81;;;10.90;52.14
68107;BME280;54892;47.488;19.026;2023-02-23T15:08:33;100005.28;;;10.73;52.53
68107;BME280;54892;47.488;19.026;2023-02-23T15:11:43;100003.94;;;10.65;52.85
68107;BME280;54892;47.488;19.026;2023-02-23T15:14:51;99995.50;;;10.74;52.84
68107;BME280;54892;47.488;19.026;2023-02-23T15:17:56;99994.97;;;10.66;52.73
68107;BME280;54892;47.488;19.026;2023-02-23T15:21:00;99994.97;;;10.66;53.29
68107;BME280;54892;47.488;19.026;2023-02-23T15:24:09;99990.22;;;10.74;52.95
68107;BME280;54892;47.488;19.026;2023-02-23T15:27:17;100004.13;;;10.54;53.46
68107;BME280;54892;47.488;19.026;2023-02-23T15:30:24;99995.16;;;10.60;53.39
68107;BME280;54892;47.488;19.026;2023-02-23T15:33:28;99988.84;;;10.61;53.53
68107;BME280;54892;47.488;19.026;2023-02-23T15:36:31;99986.66;;;10.47;54.10
68107;BME280;54892;47.488;19.026;2023-02-23T15:39:36;99988.97;;;10.39;54.50
68107;BME280;54892;47.488;19.026;2023-02-23T15:42:43;99979.78;;;10.46;54.24
68107;BME280;54892;47.488;19.026;2023-02-23T15:45:48;99991.03;;;10.36;54.52
68107;BME280;54892;47.488;19.026;2023-02-23T15:48:52;99979.69;;;10.36;54.83
68107;BME280;54892;47.488;19.026;2023-02-23T15:51:57;99979.94;;;10.34;54.98
68107;BME280;54892;47.488;19.026;2023-02-23T15:55:02;99982.81;;;10.33;54.87
68107;BME280;54892;47.488;19.026;2023-02-23T15:58:11;99982.03;;;10.32;54.76
68107;BME280;54892;47.488;19.026;2023-02-23T16:01:18;99988.38;;;10.31;54.96
68107;BME280;54892;47.488;19.026;2023-02-23T16:04:26;99985.53;;;10.38;54.65
68107;BME280;54892;47.488;19.026;2023-02-23T16:07:35;99981.03;;;10.39;54.66
68107;BME280;54892;47.488;19.026;2023-02-23T16:10:41;99992.13;;;10.41;54.57
68107;BME280;54892;47.488;19.026;2023-02-23T16:13:47;99986.00;;;10.35;54.78
68107;BME280;54892;47.488;19.026;2023-02-23T16:16:54;99987.91;;;10.40;54.83
68107;BME280;54892;47.488;19.026;2023-02-23T16:20:12;99985.22;;;10.34;55.09
68107;BME280;54892;47.488;19.026;2023-02-23T16:23:22;99987.69;;;10.46;54.71
68107;BME280;54892;47.488;19.026;2023-02-23T16:26:34;99981.00;;;10.33;55.01
68107;BME280;54892;47.488;19.026;2023-02-23T16:29:42;99985.97;;;10.30;55.10
68107;BME280;54892;47.488;19.026;2023-02-23T16:32:45;99981.72;;;10.24;55.44
68107;BME280;54892;47.488;19.026;2023-02-23T16:35:49;99983.81;;;10.21;55.49
68107;BME280;54892;47.488;19.026;2023-02-23T16:38:56;99986.28;;;10.33;55.22
68107;BME280;54892;47.488;19.026;2023-02-23T16:42:00;99983.88;;;10.32;55.24
68107;BME280;54892;47.488;19.026;2023-02-23T16:45:08;99985.94;;;10.25;55.45